sensor_id;sensor_type;location;lat;lon;timestamp;temperature;humidity
6696;DHT22;3385;48.928;10.330;2023-07-20T00:01:16;18.20;99.90
6696;DHT22;3385;48.928;10.330;2023-07-20T00:03:42;18.20;99.90
6696;DHT22;3385;48.928;10.330;2023-07-20T00:06:07;17.80;99.90
6696;DHT22;3385;48.928;10.330;2023-07-20T00:08:33;18.00;99.90
6696;DHT22;3385;48.928;10.330;2023-07-20T00:10:59;18.00;99.90
6696;DHT22;3385;48.928;10.330;2023-07-20T00:13:25;18.00;99.90
6696;DHT22;3385;48.928;10.330;2023-07-20T00:15:51;17.60;99.90
6696;DHT22;3385;48.928;10.330;2023-07-20T00:18:17;17.60;99.90
6696;DHT22;3385;48.928;10.330;2023-07-20T00:20:47;18.00;99.90
6696;DHT22;3385;48.928;10.330;2023-07-20T00:23:12;18.10;99.90
6696;DHT22;3385;48.928;10.330;2023-07-20T00:25:38;18.30;99.90
6696;DHT22;3385;48.928;10.330;2023-07-20T00:28:04;18.30;99.90
6696;DHT22;3385;48.928;10.330;2023-07-20T00:30:29;18.10;99.90
6696;DHT22;3385;48.928;10.330;2023-07-20T00:32:55;18.20;99.90
6696;DHT22;3385;48.928;10.330;2023-07-20T00:35:21;18.40;99.90
6696;DHT22;3385;48.928;10.330;2023-07-20T00:37:46;18.60;99.90
6696;DHT22;3385;48.928;10.330;2023-07-20T00:40:12;18.50;99.90
6696;DHT22;3385;48.928;10.330;2023-07-20T00:42:38;18.40;99.90
6696;DHT22;3385;48.928;10.330;2023-07-20T00:45:05;18.40;99.90
6696;DHT22;3385;48.928;10.330;2023-07-20T00:47:31;18.50;99.90
6696;DHT22;3385;48.928;10.330;2023-07-20T00:49:57;18.60;99.90
6696;DHT22;3385;48.928;10.330;2023-07-20T00:52:23;18.30;99.90
6696;DHT22;3385;48.928;10.330;2023-07-20T00:54:50;18.30;99.90
6696;DHT22;3385;48.928;10.330;2023-07-20T00:57:17;18.80;99.90
6696;DHT22;3385;48.928;10.330;2023-07-20T00:59:44;18.50;99.90
6696;DHT22;3385;48.928;10.330;2023-07-20T01:02:10;18.60;99.90
6696;DHT22;3385;48.928;10.330;2023-07-20T01:04:36;19.70;99.90
6696;DHT22;3385;48.928;10.330;2023-07-20T01:09:39;18.50;99.90
6696;DHT22;3385;48.928;10.330;2023-07-20T01:14:42;18.60;99.90
6696;DHT22;3385;48.928;10.330;2023-07-20T01:17:08;18.30;99.90
6696;DHT22;3385;48.928;10.330;2023-07-20T01:19:33;18.50;99.90
6696;DHT22;3385;48.928;10.330;2023-07-20T01:33:08;18.40;99.90
6696;DHT22;3385;48.928;10.330;2023-07-20T01:35:34;18.50;99.90
6696;DHT22;3385;48.928;10.330;2023-07-20T01:38:02;18.30;99.90
6696;DHT22;3385;48.928;10.330;2023-07-20T01:42:55;18.30;99.90
6696;DHT22;3385;48.928;10.330;2023-07-20T01:45:21;18.10;99.90
6696;DHT22;3385;48.928;10.330;2023-07-20T01:47:46;17.90;99.90
6696;DHT22;3385;48.928;10.330;2023-07-20T01:50:12;17.90;99.90
6696;DHT22;3385;48.928;10.330;2023-07-20T01:52:38;17.70;99.90
6696;DHT22;3385;48.928;10.330;2023-07-20T01:55:04;18.00;99.90
6696;DHT22;3385;48.928;10.330;2023-07-20T01:57:30;17.90;99.90
6696;DHT22;3385;48.928;10.330;2023-07-20T01:59:56;17.80;99.90
6696;DHT22;3385;48.928;10.330;2023-07-20T02:02:25;17.60;99.90
6696;DHT22;3385;48.928;10.330;2023-07-20T02:04:51;17.50;99.90
6696;DHT22;3385;48.928;10.330;2023-07-20T02:07:17;17.50;99.90
6696;DHT22;3385;48.928;10.330;2023-07-20T02:09:42;17.30;99.90
6696;DHT22;3385;48.928;10.330;2023-07-20T02:12:08;17.50;99.90
6696;DHT22;3385;48.928;10.330;2023-07-20T02:14:34;17.10;99.90
6696;DHT22;3385;48.928;10.330;2023-07-20T02:17:00;17.20;99.90
6696;DHT22;3385;48.928;10.330;2023-07-20T02:19:26;17.10;99.90
6696;DHT22;3385;48.928;10.330;2023-07-20T02:21:52;17.10;99.90
6696;DHT22;3385;48.928;10.330;2023-07-20T02:24:18;16.90;99.90
6696;DHT22;3385;48.928;10.330;2023-07-20T02:26:44;17.00;99.90
6696;DHT22;3385;48.928;10.330;2023-07-20T02:29:10;17.10;99.90
6696;DHT22;3385;48.928;10.330;2023-07-20T02:31:38;17.10;99.90
6696;DHT22;3385;48.928;10.330;2023-07-20T02:34:05;17.00;99.90
6696;DHT22;3385;48.928;10.330;2023-07-20T02:36:31;17.10;99.90
6696;DHT22;3385;48.928;10.330;2023-07-20T02:39:00;17.10;99.90
6696;DHT22;3385;48.928;10.330;2023-07-20T02:41:27;16.80;99.90
6696;DHT22;3385;48.928;10.330;2023-07-20T02:43:53;16.90;99.90
6696;DHT22;3385;48.928;10.330;2023-07-20T02:46:19;16.60;99.90
6696;DHT22;3385;48.928;10.330;2023-07-20T02:48:44;16.30;99.90
6696;DHT22;3385;48.928;10.330;2023-07-20T02:51:10;16.20;99.90
6696;DHT22;3385;48.928;10.330;2023-07-20T02:53:37;16.50;99.90
6696;DHT22;3385;48.928;10.330;2023-07-20T02:56:03;16.50;99.90
6696;DHT22;3385;48.928;10.330;2023-07-20T02:58:29;16.80;99.90
6696;DHT22;3385;48.928;10.330;2023-07-20T03:00:55;16.40;99.90
6696;DHT22;3385;48.928;10.330;2023-07-20T03:03:20;16.70;99.90
6696;DHT22;3385;48.928;10.330;2023-07-20T03:05:46;16.50;99.90
6696;DHT22;3385;48.928;10.330;2023-07-20T03:08:12;16.90;99.90
6696;DHT22;3385;48.928;10.330;2023-07-20T03:10:41;16.50;99.90
6696;DHT22;3385;48.928;10.330;2023-07-20T03:13:07;16.70;99.90
6696;DHT22;3385;48.928;10.330;2023-07-20T03:15:34;16.50;99.90
6696;DHT22;3385;48.928;10.330;2023-07-20T03:17:59;17.00;99.90
6696;DHT22;3385;48.928;10.330;2023-07-20T03:20:25;16.50;99.90
6696;DHT22;3385;48.928;10.330;2023-07-20T03:22:51;16.80;99.90
6696;DHT22;3385;48.928;10.330;2023-07-20T03:25:17;16.50;99.90
6696;DHT22;3385;48.928;10.330;2023-07-20T03:27:43;16.50;99.90
6696;DHT22;3385;48.928;10.330;2023-07-20T03:30:09;16.80;99.90
6696;DHT22;3385;48.928;10.330;2023-07-20T03:32:35;16.80;99.90
6696;DHT22;3385;48.928;10.330;2023-07-20T03:35:01;16.70;99.90
6696;DHT22;3385;48.928;10.330;2023-07-20T03:37:27;16.30;99.90
6696;DHT22;3385;48.928;10.330;2023-07-20T03:39:53;16.60;99.90
6696;DHT22;3385;48.928;10.330;2023-07-20T03:42:19;16.30;99.90
6696;DHT22;3385;48.928;10.330;2023-07-20T03:44:44;16.30;99.90
6696;DHT22;3385;48.928;10.330;2023-07-20T03:47:10;15.90;99.90
6696;DHT22;3385;48.928;10.330;2023-07-20T03:49:36;16.30;99.90
6696;DHT22;3385;48.928;10.330;2023-07-20T03:52:02;16.20;99.90
6696;DHT22;3385;48.928;10.330;2023-07-20T03:54:29;16.40;99.90
6696;DHT22;3385;48.928;10.330;2023-07-20T03:56:54;16.30;99.90
6696;DHT22;3385;48.928;10.330;2023-07-20T03:59:20;15.80;99.90
6696;DHT22;3385;48.928;10.330;2023-07-20T04:01:46;16.20;99.90
6696;DHT22;3385;48.928;10.330;2023-07-20T04:04:13;15.70;99.90
6696;DHT22;3385;48.928;10.330;2023-07-20T04:06:39;15.90;99.90
6696;DHT22;3385;48.928;10.330;2023-07-20T04:09:05;16.20;99.90
6696;DHT22;3385;48.928;10.330;2023-07-20T04:11:30;15.70;99.90
6696;DHT22;3385;48.928;10.330;2023-07-20T04:13:56;15.80;99.90
6696;DHT22;3385;48.928;10.330;2023-07-20T04:16:22;15.70;99.90
6696;DHT22;3385;48.928;10.330;2023-07-20T04:18:48;16.10;99.90
6696;DHT22;3385;48.928;10.330;2023-07-20T04:21:13;15.60;99.90
6696;DHT22;3385;48.928;10.330;2023-07-20T04:23:40;15.80;99.90
6696;DHT22;3385;48.928;10.330;2023-07-20T04:26:05;16.00;99.90
6696;DHT22;3385;48.928;10.330;2023-07-20T04:28:32;16.10;99.90
6696;DHT22;3385;48.928;10.330;2023-07-20T04:31:18;15.70;99.90
6696;DHT22;3385;48.928;10.330;2023-07-20T04:33:44;16.00;99.90
6696;DHT22;3385;48.928;10.330;2023-07-20T04:36:10;15.90;99.90
6696;DHT22;3385;48.928;10.330;2023-07-20T04:38:35;15.90;99.90
6696;DHT22;3385;48.928;10.330;2023-07-20T04:41:01;16.20;99.90
6696;DHT22;3385;48.928;10.330;2023-07-20T04:43:28;15.90;99.90
6696;DHT22;3385;48.928;10.330;2023-07-20T04:45:54;15.80;99.90
6696;DHT22;3385;48.928;10.330;2023-07-20T04:48:20;16.00;99.90
6696;DHT22;3385;48.928;10.330;2023-07-20T04:50:45;15.80;99.90
6696;DHT22;3385;48.928;10.330;2023-07-20T04:53:14;15.70;99.90
6696;DHT22;3385;48.928;10.330;2023-07-20T04:55:40;16.00;99.90
6696;DHT22;3385;48.928;10.330;2023-07-20T04:58:06;16.20;99.90
6696;DHT22;3385;48.928;10.330;2023-07-20T05:00:33;16.50;99.90
6696;DHT22;3385;48.928;10.330;2023-07-20T05:02:59;16.30;99.90
6696;DHT22;3385;48.928;10.330;2023-07-20T05:05:25;16.10;99.90
6696;DHT22;3385;48.928;10.330;2023-07-20T05:07:50;16.60;99.90
6696;DHT22;3385;48.928;10.330;2023-07-20T05:10:17;16.70;99.90
6696;DHT22;3385;48.928;10.330;2023-07-20T05:12:43;16.30;99.90
6696;DHT22;3385;48.928;10.330;2023-07-20T05:15:09;16.70;99.90
6696;DHT22;3385;48.928;10.330;2023-07-20T05:17:35;16.70;99.90
6696;DHT22;3385;48.928;10.330;2023-07-20T05:20:01;16.60;99.90
6696;DHT22;3385;48.928;10.330;2023-07-20T05:22:26;16.40;99.90
6696;DHT22;3385;48.928;10.330;2023-07-20T05:24:52;17.10;99.90
6696;DHT22;3385;48.928;10.330;2023-07-20T05:27:18;14.00;99.90
6696;DHT22;3385;48.928;10.330;2023-07-20T05:29:47;17.20;99.90
6696;DHT22;3385;48.928;10.330;2023-07-20T05:32:13;16.60;99.90
6696;DHT22;3385;48.928;10.330;2023-07-20T05:34:39;16.70;99.90
6696;DHT22;3385;48.928;10.330;2023-07-20T05:37:05;17.10;99.90
6696;DHT22;3385;48.928;10.330;2023-07-20T05:39:34;16.80;99.90
6696;DHT22;3385;48.928;10.330;2023-07-20T05:42:00;17.00;99.90
6696;DHT22;3385;48.928;10.330;2023-07-20T05:44:25;17.00;99.90
6696;DHT22;3385;48.928;10.330;2023-07-20T05:46:51;16.80;99.90
6696;DHT22;3385;48.928;10.330;2023-07-20T05:49:17;17.30;99.90
6696;DHT22;3385;48.928;10.330;2023-07-20T05:51:42;17.40;99.90
6696;DHT22;3385;48.928;10.330;2023-07-20T05:54:08;17.20;99.90
6696;DHT22;3385;48.928;10.330;2023-07-20T05:56:34;17.20;99.90
6696;DHT22;3385;48.928;10.330;2023-07-20T05:59:00;17.60;99.90
6696;DHT22;3385;48.928;10.330;2023-07-20T06:01:25;17.30;99.90
6696;DHT22;3385;48.928;10.330;2023-07-20T06:03:53;17.40;99.90
6696;DHT22;3385;48.928;10.330;2023-07-20T06:06:19;17.40;99.90
6696;DHT22;3385;48.928;10.330;2023-07-20T06:08:45;17.70;99.90
6696;DHT22;3385;48.928;10.330;2023-07-20T06:11:11;17.70;99.90
6696;DHT22;3385;48.928;10.330;2023-07-20T06:13:37;17.80;99.90
6696;DHT22;3385;48.928;10.330;2023-07-20T06:16:03;17.70;99.90
6696;DHT22;3385;48.928;10.330;2023-07-20T06:18:29;17.80;99.90
6696;DHT22;3385;48.928;10.330;2023-07-20T06:20:56;18.00;99.90
6696;DHT22;3385;48.928;10.330;2023-07-20T06:23:22;17.80;99.90
6696;DHT22;3385;48.928;10.330;2023-07-20T06:25:47;17.90;99.90
6696;DHT22;3385;48.928;10.330;2023-07-20T06:28:14;18.00;99.90
6696;DHT22;3385;48.928;10.330;2023-07-20T06:30:39;17.90;99.90
6696;DHT22;3385;48.928;10.330;2023-07-20T06:33:05;17.90;99.90
6696;DHT22;3385;48.928;10.330;2023-07-20T06:35:32;18.20;99.90
6696;DHT22;3385;48.928;10.330;2023-07-20T06:37:57;18.30;99.90
6696;DHT22;3385;48.928;10.330;2023-07-20T06:40:24;18.10;99.90
6696;DHT22;3385;48.928;10.330;2023-07-20T06:42:50;18.40;99.90
6696;DHT22;3385;48.928;10.330;2023-07-20T06:45:16;18.20;99.90
6696;DHT22;3385;48.928;10.330;2023-07-20T06:47:42;18.30;99.90
6696;DHT22;3385;48.928;10.330;2023-07-20T06:50:08;18.70;99.90
6696;DHT22;3385;48.928;10.330;2023-07-20T06:52:34;18.60;99.90
6696;DHT22;3385;48.928;10.330;2023-07-20T06:55:00;18.60;99.90
6696;DHT22;3385;48.928;10.330;2023-07-20T06:57:26;18.80;99.90
6696;DHT22;3385;48.928;10.330;2023-07-20T06:59:52;18.70;99.90
6696;DHT22;3385;48.928;10.330;2023-07-20T07:02:19;18.90;99.90
6696;DHT22;3385;48.928;10.330;2023-07-20T07:04:45;18.90;99.90
6696;DHT22;3385;48.928;10.330;2023-07-20T07:07:14;19.00;99.90
6696;DHT22;3385;48.928;10.330;2023-07-20T07:09:40;18.70;99.90
6696;DHT22;3385;48.928;10.330;2023-07-20T07:12:06;19.00;99.90
6696;DHT22;3385;48.928;10.330;2023-07-20T07:14:32;18.80;99.90
6696;DHT22;3385;48.928;10.330;2023-07-20T07:16:58;19.00;99.90
6696;DHT22;3385;48.928;10.330;2023-07-20T07:19:24;19.30;99.90
6696;DHT22;3385;48.928;10.330;2023-07-20T07:21:50;19.20;99.90
6696;DHT22;3385;48.928;10.330;2023-07-20T07:24:16;19.30;99.90
6696;DHT22;3385;48.928;10.330;2023-07-20T07:26:42;19.60;99.90
6696;DHT22;3385;48.928;10.330;2023-07-20T07:29:07;19.80;99.90
6696;DHT22;3385;48.928;10.330;2023-07-20T07:31:34;19.70;99.90
6696;DHT22;3385;48.928;10.330;2023-07-20T07:34:02;19.70;99.90
6696;DHT22;3385;48.928;10.330;2023-07-20T07:36:28;20.00;99.90
6696;DHT22;3385;48.928;10.330;2023-07-20T07:38:54;20.10;99.90
6696;DHT22;3385;48.928;10.330;2023-07-20T07:41:19;19.90;99.90
6696;DHT22;3385;48.928;10.330;2023-07-20T07:43:46;20.30;99.90
6696;DHT22;3385;48.928;10.330;2023-07-20T07:46:11;20.60;99.90
6696;DHT22;3385;48.928;10.330;2023-07-20T07:48:37;21.00;99.90
6696;DHT22;3385;48.928;10.330;2023-07-20T07:51:03;21.40;99.90
6696;DHT22;3385;48.928;10.330;2023-07-20T07:53:29;21.30;99.90
6696;DHT22;3385;48.928;10.330;2023-07-20T07:55:54;21.20;99.90
6696;DHT22;3385;48.928;10.330;2023-07-20T07:58:21;21.10;99.90
6696;DHT22;3385;48.928;10.330;2023-07-20T08:00:47;21.30;99.90
6696;DHT22;3385;48.928;10.330;2023-07-20T08:03:13;21.00;99.90
6696;DHT22;3385;48.928;10.330;2023-07-20T08:05:39;21.00;99.90
6696;DHT22;3385;48.928;10.330;2023-07-20T08:08:05;20.80;99.90
6696;DHT22;3385;48.928;10.330;2023-07-20T08:10:31;20.70;99.90
6696;DHT22;3385;48.928;10.330;2023-07-20T08:12:57;20.90;99.90
6696;DHT22;3385;48.928;10.330;2023-07-20T08:15:23;21.40;99.90
6696;DHT22;3385;48.928;10.330;2023-07-20T08:17:49;21.50;99.90
6696;DHT22;3385;48.928;10.330;2023-07-20T08:20:18;21.60;99.90
6696;DHT22;3385;48.928;10.330;2023-07-20T08:22:52;21.30;99.90
6696;DHT22;3385;48.928;10.330;2023-07-20T08:25:18;21.10;99.90
6696;DHT22;3385;48.928;10.330;2023-07-20T08:27:44;21.10;99.90
6696;DHT22;3385;48.928;10.330;2023-07-20T08:30:13;21.10;99.90
6696;DHT22;3385;48.928;10.330;2023-07-20T08:32:38;20.70;99.90
6696;DHT22;3385;48.928;10.330;2023-07-20T08:35:05;21.40;99.90
6696;DHT22;3385;48.928;10.330;2023-07-20T08:37:31;21.50;99.90
6696;DHT22;3385;48.928;10.330;2023-07-20T08:39:57;21.40;99.90
6696;DHT22;3385;48.928;10.330;2023-07-20T08:44:49;21.70;99.90
6696;DHT22;3385;48.928;10.330;2023-07-20T08:47:18;21.80;99.90
6696;DHT22;3385;48.928;10.330;2023-07-20T08:49:48;21.80;99.90
6696;DHT22;3385;48.928;10.330;2023-07-20T08:52:14;21.90;99.90
6696;DHT22;3385;48.928;10.330;2023-07-20T08:54:40;21.80;99.90
6696;DHT22;3385;48.928;10.330;2023-07-20T08:57:06;22.00;99.90
6696;DHT22;3385;48.928;10.330;2023-07-20T08:59:34;22.00;99.90
6696;DHT22;3385;48.928;10.330;2023-07-20T09:02:02;22.10;99.90
6696;DHT22;3385;48.928;10.330;2023-07-20T09:04:30;21.70;99.90
6696;DHT22;3385;48.928;10.330;2023-07-20T09:06:57;21.50;99.90
6696;DHT22;3385;48.928;10.330;2023-07-20T09:09:22;21.50;99.90
6696;DHT22;3385;48.928;10.330;2023-07-20T09:11:49;21.60;99.90
6696;DHT22;3385;48.928;10.330;2023-07-20T09:14:15;22.10;99.90
6696;DHT22;3385;48.928;10.330;2023-07-20T09:16:53;22.50;99.90
6696;DHT22;3385;48.928;10.330;2023-07-20T09:19:20;22.40;99.90
6696;DHT22;3385;48.928;10.330;2023-07-20T09:21:49;22.40;99.90
6696;DHT22;3385;48.928;10.330;2023-07-20T09:24:17;21.90;99.90
6696;DHT22;3385;48.928;10.330;2023-07-20T09:26:45;22.10;99.90
6696;DHT22;3385;48.928;10.330;2023-07-20T09:29:11;22.10;99.90
6696;DHT22;3385;48.928;10.330;2023-07-20T09:31:37;21.90;99.90
6696;DHT22;3385;48.928;10.330;2023-07-20T09:34:04;22.30;99.90
6696;DHT22;3385;48.928;10.330;2023-07-20T09:36:33;22.60;99.90
6696;DHT22;3385;48.928;10.330;2023-07-20T09:39:00;22.80;99.90
6696;DHT22;3385;48.928;10.330;2023-07-20T09:41:26;22.60;99.90
6696;DHT22;3385;48.928;10.330;2023-07-20T09:43:53;23.10;99.90
6696;DHT22;3385;48.928;10.330;2023-07-20T09:46:19;23.00;99.90
6696;DHT22;3385;48.928;10.330;2023-07-20T09:48:54;23.90;99.90
6696;DHT22;3385;48.928;10.330;2023-07-20T09:51:23;24.00;99.90
6696;DHT22;3385;48.928;10.330;2023-07-20T09:53:52;23.80;99.90
6696;DHT22;3385;48.928;10.330;2023-07-20T09:56:21;23.90;99.90
6696;DHT22;3385;48.928;10.330;2023-07-20T09:58:48;23.90;99.90
6696;DHT22;3385;48.928;10.330;2023-07-20T10:01:18;23.90;99.90
6696;DHT22;3385;48.928;10.330;2023-07-20T10:03:45;24.00;99.90
6696;DHT22;3385;48.928;10.330;2023-07-20T10:06:15;24.20;99.90
6696;DHT22;3385;48.928;10.330;2023-07-20T10:08:45;24.10;99.90
6696;DHT22;3385;48.928;10.330;2023-07-20T10:11:15;24.40;99.90
6696;DHT22;3385;48.928;10.330;2023-07-20T10:13:44;23.90;99.90
6696;DHT22;3385;48.928;10.330;2023-07-20T10:16:11;23.90;99.90
6696;DHT22;3385;48.928;10.330;2023-07-20T10:19:02;23.90;99.90
6696;DHT22;3385;48.928;10.330;2023-07-20T10:21:29;23.60;99.90
6696;DHT22;3385;48.928;10.330;2023-07-20T10:23:59;24.00;99.90
6696;DHT22;3385;48.928;10.330;2023-07-20T10:26:26;23.80;99.90
6696;DHT22;3385;48.928;10.330;2023-07-20T10:28:52;23.40;99.90
6696;DHT22;3385;48.928;10.330;2023-07-20T10:31:19;23.60;99.90
6696;DHT22;3385;48.928;10.330;2023-07-20T10:33:46;23.00;99.90
6696;DHT22;3385;48.928;10.330;2023-07-20T10:36:12;21.40;99.90
6696;DHT22;3385;48.928;10.330;2023-07-20T10:44:00;23.70;99.90
6696;DHT22;3385;48.928;10.330;2023-07-20T10:49:08;24.40;99.90
6696;DHT22;3385;48.928;10.330;2023-07-20T10:51:45;24.20;99.90
6696;DHT22;3385;48.928;10.330;2023-07-20T10:56:44;24.10;99.90
6696;DHT22;3385;48.928;10.330;2023-07-20T11:01:48;24.40;99.90
6696;DHT22;3385;48.928;10.330;2023-07-20T11:04:17;24.70;99.90
6696;DHT22;3385;48.928;10.330;2023-07-20T11:06:45;25.20;99.90
6696;DHT22;3385;48.928;10.330;2023-07-20T11:09:12;25.20;99.90
6696;DHT22;3385;48.928;10.330;2023-07-20T11:11:46;24.90;99.90
6696;DHT22;3385;48.928;10.330;2023-07-20T11:14:23;25.70;99.90
6696;DHT22;3385;48.928;10.330;2023-07-20T11:16:50;25.10;99.90
6696;DHT22;3385;48.928;10.330;2023-07-20T11:21:49;24.70;99.90
6696;DHT22;3385;48.928;10.330;2023-07-20T11:24:15;24.90;99.90
6696;DHT22;3385;48.928;10.330;2023-07-20T11:29:11;25.00;99.90
6696;DHT22;3385;48.928;10.330;2023-07-20T11:31:38;25.50;99.90
6696;DHT22;3385;48.928;10.330;2023-07-20T11:34:05;25.80;99.90
6696;DHT22;3385;48.928;10.330;2023-07-20T11:36:31;25.90;99.90
6696;DHT22;3385;48.928;10.330;2023-07-20T11:38:58;26.60;99.90
6696;DHT22;3385;48.928;10.330;2023-07-20T11:41:25;27.00;99.90
6696;DHT22;3385;48.928;10.330;2023-07-20T11:43:52;27.20;99.90
6696;DHT22;3385;48.928;10.330;2023-07-20T11:46:19;27.60;99.90
6696;DHT22;3385;48.928;10.330;2023-07-20T11:48:45;28.00;99.90
6696;DHT22;3385;48.928;10.330;2023-07-20T11:51:15;28.10;99.90
6696;DHT22;3385;48.928;10.330;2023-07-20T11:53:42;28.60;99.90
6696;DHT22;3385;48.928;10.330;2023-07-20T11:56:08;28.50;99.90
6696;DHT22;3385;48.928;10.330;2023-07-20T11:58:34;27.80;99.90
6696;DHT22;3385;48.928;10.330;2023-07-20T12:00:59;27.50;99.90
6696;DHT22;3385;48.928;10.330;2023-07-20T12:03:25;27.00;99.90
6696;DHT22;3385;48.928;10.330;2023-07-20T12:05:51;26.80;99.90
6696;DHT22;3385;48.928;10.330;2023-07-20T12:08:17;26.00;99.90
6696;DHT22;3385;48.928;10.330;2023-07-20T12:10:42;26.10;99.90
6696;DHT22;3385;48.928;10.330;2023-07-20T12:13:10;26.60;99.90
6696;DHT22;3385;48.928;10.330;2023-07-20T12:15:37;27.70;99.90
6696;DHT22;3385;48.928;10.330;2023-07-20T12:18:04;29.20;99.90
6696;DHT22;3385;48.928;10.330;2023-07-20T12:20:35;29.90;99.90
6696;DHT22;3385;48.928;10.330;2023-07-20T12:23:12;30.40;99.90
6696;DHT22;3385;48.928;10.330;2023-07-20T12:25:39;30.70;99.90
6696;DHT22;3385;48.928;10.330;2023-07-20T12:28:09;31.40;99.90
6696;DHT22;3385;48.928;10.330;2023-07-20T12:30:37;31.50;99.90
6696;DHT22;3385;48.928;10.330;2023-07-20T12:33:03;30.80;99.90
6696;DHT22;3385;48.928;10.330;2023-07-20T12:35:30;29.80;99.90
6696;DHT22;3385;48.928;10.330;2023-07-20T12:37:55;28.10;99.90
6696;DHT22;3385;48.928;10.330;2023-07-20T12:40:21;28.00;99.90
6696;DHT22;3385;48.928;10.330;2023-07-20T12:42:47;27.30;99.90
6696;DHT22;3385;48.928;10.330;2023-07-20T12:45:13;28.10;99.90
6696;DHT22;3385;48.928;10.330;2023-07-20T12:47:39;31.50;99.90
6696;DHT22;3385;48.928;10.330;2023-07-20T12:50:06;31.90;99.90
6696;DHT22;3385;48.928;10.330;2023-07-20T12:52:36;33.40;99.90
6696;DHT22;3385;48.928;10.330;2023-07-20T12:55:03;32.70;99.90
6696;DHT22;3385;48.928;10.330;2023-07-20T12:57:28;30.30;99.90
6696;DHT22;3385;48.928;10.330;2023-07-20T12:59:54;30.50;99.90
6696;DHT22;3385;48.928;10.330;2023-07-20T13:02:20;31.60;99.90
6696;DHT22;3385;48.928;10.330;2023-07-20T13:04:46;31.80;99.90
6696;DHT22;3385;48.928;10.330;2023-07-20T13:07:11;32.60;99.90
6696;DHT22;3385;48.928;10.330;2023-07-20T13:09:37;33.20;99.90
6696;DHT22;3385;48.928;10.330;2023-07-20T13:12:03;32.50;99.90
6696;DHT22;3385;48.928;10.330;2023-07-20T13:14:29;33.10;99.90
6696;DHT22;3385;48.928;10.330;2023-07-20T13:16:57;34.70;99.90
6696;DHT22;3385;48.928;10.330;2023-07-20T13:19:25;36.00;99.90
6696;DHT22;3385;48.928;10.330;2023-07-20T13:21:52;36.40;99.90
6696;DHT22;3385;48.928;10.330;2023-07-20T13:24:18;36.60;99.90
6696;DHT22;3385;48.928;10.330;2023-07-20T13:26:43;37.40;99.90
6696;DHT22;3385;48.928;10.330;2023-07-20T13:29:09;36.50;99.90
6696;DHT22;3385;48.928;10.330;2023-07-20T13:31:35;35.00;99.90
6696;DHT22;3385;48.928;10.330;2023-07-20T13:34:00;32.90;99.90
6696;DHT22;3385;48.928;10.330;2023-07-20T13:36:26;32.60;99.90
6696;DHT22;3385;48.928;10.330;2023-07-20T13:43:47;33.50;99.90
6696;DHT22;3385;48.928;10.330;2023-07-20T13:46:12;31.90;99.90
6696;DHT22;3385;48.928;10.330;2023-07-20T13:48:38;31.40;99.90
6696;DHT22;3385;48.928;10.330;2023-07-20T13:51:03;32.40;99.90
6696;DHT22;3385;48.928;10.330;2023-07-20T13:53:29;33.40;99.90
6696;DHT22;3385;48.928;10.330;2023-07-20T13:55:55;33.90;99.90
6696;DHT22;3385;48.928;10.330;2023-07-20T13:58:22;35.20;99.90
6696;DHT22;3385;48.928;10.330;2023-07-20T14:00:48;34.90;99.90
6696;DHT22;3385;48.928;10.330;2023-07-20T14:03:13;34.10;99.90
6696;DHT22;3385;48.928;10.330;2023-07-20T14:05:39;34.30;99.90
6696;DHT22;3385;48.928;10.330;2023-07-20T14:08:05;35.10;99.90
6696;DHT22;3385;48.928;10.330;2023-07-20T14:10:31;35.30;99.90
6696;DHT22;3385;48.928;10.330;2023-07-20T14:12:57;35.90;99.90
6696;DHT22;3385;48.928;10.330;2023-07-20T14:15:22;36.30;99.90
6696;DHT22;3385;48.928;10.330;2023-07-20T14:17:48;35.30;99.90
6696;DHT22;3385;48.928;10.330;2023-07-20T14:20:14;35.10;99.90
6696;DHT22;3385;48.928;10.330;2023-07-20T14:22:39;34.70;99.90
6696;DHT22;3385;48.928;10.330;2023-07-20T14:25:07;34.20;99.90
6696;DHT22;3385;48.928;10.330;2023-07-20T14:27:33;35.20;99.90
6696;DHT22;3385;48.928;10.330;2023-07-20T14:29:59;35.30;99.90
6696;DHT22;3385;48.928;10.330;2023-07-20T14:32:24;40.20;99.90
6696;DHT22;3385;48.928;10.330;2023-07-20T14:34:50;36.40;99.90
6696;DHT22;3385;48.928;10.330;2023-07-20T14:37:16;35.60;99.90
6696;DHT22;3385;48.928;10.330;2023-07-20T14:39:42;35.70;99.90
6696;DHT22;3385;48.928;10.330;2023-07-20T14:42:08;36.10;99.90
6696;DHT22;3385;48.928;10.330;2023-07-20T14:44:35;36.30;99.90
6696;DHT22;3385;48.928;10.330;2023-07-20T14:47:01;36.00;99.90
6696;DHT22;3385;48.928;10.330;2023-07-20T14:49:27;35.80;99.90
6696;DHT22;3385;48.928;10.330;2023-07-20T14:51:52;35.70;99.90
6696;DHT22;3385;48.928;10.330;2023-07-20T14:54:18;34.40;99.90
6696;DHT22;3385;48.928;10.330;2023-07-20T14:56:51;34.00;99.90
6696;DHT22;3385;48.928;10.330;2023-07-20T14:59:20;32.80;99.90
6696;DHT22;3385;48.928;10.330;2023-07-20T15:01:46;32.80;99.90
6696;DHT22;3385;48.928;10.330;2023-07-20T15:04:15;33.30;99.90
6696;DHT22;3385;48.928;10.330;2023-07-20T15:06:41;33.60;99.90
6696;DHT22;3385;48.928;10.330;2023-07-20T15:09:07;33.90;99.90
6696;DHT22;3385;48.928;10.330;2023-07-20T15:11:35;34.50;99.90
6696;DHT22;3385;48.928;10.330;2023-07-20T15:14:01;35.00;99.90
6696;DHT22;3385;48.928;10.330;2023-07-20T15:16:27;35.30;99.90
6696;DHT22;3385;48.928;10.330;2023-07-20T15:18:53;35.40;99.90
6696;DHT22;3385;48.928;10.330;2023-07-20T15:21:18;34.90;99.90
6696;DHT22;3385;48.928;10.330;2023-07-20T15:23:44;34.70;99.90
6696;DHT22;3385;48.928;10.330;2023-07-20T15:26:10;34.70;99.90
6696;DHT22;3385;48.928;10.330;2023-07-20T15:28:40;34.50;99.90
6696;DHT22;3385;48.928;10.330;2023-07-20T15:31:06;34.40;99.90
6696;DHT22;3385;48.928;10.330;2023-07-20T15:33:32;33.80;99.90
6696;DHT22;3385;48.928;10.330;2023-07-20T15:35:58;33.40;99.90
6696;DHT22;3385;48.928;10.330;2023-07-20T15:38:24;32.50;99.90
6696;DHT22;3385;48.928;10.330;2023-07-20T15:40:50;32.40;99.90
6696;DHT22;3385;48.928;10.330;2023-07-20T15:43:15;31.90;99.90
6696;DHT22;3385;48.928;10.330;2023-07-20T15:45:47;31.50;99.90
6696;DHT22;3385;48.928;10.330;2023-07-20T15:48:16;30.70;99.90
6696;DHT22;3385;48.928;10.330;2023-07-20T15:50:42;30.90;99.90
6696;DHT22;3385;48.928;10.330;2023-07-20T15:53:08;30.90;99.90
6696;DHT22;3385;48.928;10.330;2023-07-20T15:55:34;30.40;99.90
6696;DHT22;3385;48.928;10.330;2023-07-20T15:57:59;30.60;99.90
6696;DHT22;3385;48.928;10.330;2023-07-20T16:00:25;30.30;99.90
6696;DHT22;3385;48.928;10.330;2023-07-20T16:02:51;30.90;99.90
6696;DHT22;3385;48.928;10.330;2023-07-20T16:05:17;30.90;99.90
6696;DHT22;3385;48.928;10.330;2023-07-20T16:07:42;31.40;99.90
6696;DHT22;3385;48.928;10.330;2023-07-20T16:10:10;31.70;99.90
6696;DHT22;3385;48.928;10.330;2023-07-20T16:12:37;31.50;99.90
6696;DHT22;3385;48.928;10.330;2023-07-20T16:15:03;31.40;99.90
6696;DHT22;3385;48.928;10.330;2023-07-20T16:17:28;30.90;99.90
6696;DHT22;3385;48.928;10.330;2023-07-20T16:19:54;31.10;99.90
6696;DHT22;3385;48.928;10.330;2023-07-20T16:22:20;31.00;99.90
6696;DHT22;3385;48.928;10.330;2023-07-20T16:24:45;31.20;99.90